Time;durP1;ratioP1;P1;durP2;ratioP2;P2;SDS_P1;SDS_P2;PMS_P1;PMS_P2;Temp;Humidity;BMP_temperature;BMP_pressure;BME280_temperature;BME280_humidity;BME280_pressure;Samples;Min_cycle;Max_cycle;Signal;HPM_P1;HPM_P2
2021/04/02 08:26:03;;;;;;;1.48;1.20;;;7.80;82.80;;;;;;4944743;29;20039;-96
2021/04/02 08:38:55;;;;;;;5.10;1.63;;;7.90;81.50;;;;;;4869249;29;20109;-96
2021/04/02 10:28:04;;;;;;;;;;;;;;;;;;;;;
2021/04/02 10:43:56;;;;;;;2.35;1.98;;;8.40;80.30;;;;;;4849894;29;20060;-92
2021/04/02 10:46:22;;;;;;;2.40;1.50;;;8.60;80.00;;;;;;4884266;29;20040;-89
2021/04/02 10:49:48;;;;;;;;;;;;;;;;;;;;;
2021/04/02 10:56:30;;;;;;;;;;;;;;;;;;;;;
2021/04/02 10:58:56;;;;;;;4.22;1.48;;;9.40;75.80;;;;;;4833465;29;20504;-92
2021/04/02 11:14:50;;;;;;;2.10;1.90;;;9.90;73.50;;;;;;4878584;29;20100;-93
2021/04/02 11:17:26;;;;;;;;;;;;;;;;;;;;;
2021/04/02 11:20:34;;;;;;;1.92;1.45;;;10.40;71.50;;;;;;4942734;29;20106;-95
2021/04/02 11:23:02;;;;;;;9.32;5.50;;;10.50;70.50;;;;;;4941392;29;20059;-94
2021/04/02 11:25:28;;;;;;;2.78;1.38;;;10.60;71.60;;;;;;4941174;29;20047;-91
2021/04/02 11:27:53;;;;;;;4.05;1.75;;;10.80;71.50;;;;;;4948735;29;20050;-90
2021/04/02 11:30:26;;;;;;;1.88;1.33;;;10.90;69.80;;;;;;4941542;29;20123;-93
2021/04/02 11:32:52;;;;;;;1.58;1.23;;;11.00;69.60;;;;;;4924412;29;20068;-93
2021/04/02 11:35:18;;;;;;;2.35;1.48;;;11.00;70.60;;;;;;4931885;29;20406;-93
2021/04/02 11:37:44;;;;;;;2.60;1.20;;;11.10;72.00;;;;;;4941368;29;20047;-94
2021/04/02 11:44:30;;;;;;;2.90;1.52;;;11.20;68.60;;;;;;4865226;29;20392;-95
2021/04/02 11:46:56;;;;;;;2.47;1.33;;;11.10;67.00;;;;;;4892242;29;20129;-95
2021/04/02 11:49:22;;;;;;;1.63;1.50;;;11.00;67.00;;;;;;4941173;29;20035;-95
2021/04/02 11:51:47;;;;;;;3.50;2.00;;;11.10;67.70;;;;;;4941100;29;20036;-95
2021/04/02 11:54:15;;;;;;;4.97;2.60;;;11.10;66.70;;;;;;4941776;29;20047;-95
2021/04/02 11:56:41;;;;;;;2.55;2.35;;;11.10;65.90;;;;;;4941098;29;20279;-94
2021/04/02 11:59:07;;;;;;;2.80;1.73;;;11.20;67.80;;;;;;4941665;29;20130;-93
2021/04/02 12:01:33;;;;;;;3.10;1.63;;;11.40;67.20;;;;;;4941263;29;20404;-95
2021/04/02 12:03:58;;;;;;;2.42;1.70;;;11.50;66.70;;;;;;4941797;29;20298;-94
2021/04/02 12:06:24;;;;;;;2.15;1.33;;;11.50;65.60;;;;;;4941224;29;20091;-94
2021/04/02 12:08:49;;;;;;;2.97;1.17;;;11.50;65.10;;;;;;4941545;29;20038;-96
2021/04/02 12:11:15;;;;;;;1.73;1.50;;;11.40;65.90;;;;;;4950843;29;20036;-90
2021/04/02 12:13:41;;;;;;;2.50;1.25;;;11.40;65.80;;;;;;4941951;29;20342;-93
2021/04/02 12:16:07;;;;;;;1.92;1.30;;;11.20;65.70;;;;;;4941040;29;20065;-92
2021/04/02 12:18:32;;;;;;;1.50;1.25;;;11.10;66.00;;;;;;4941392;29;20039;-94
2021/04/02 12:20:58;;;;;;;2.10;1.50;;;11.00;66.80;;;;;;4941180;29;20040;-93
2021/04/02 12:23:24;;;;;;;1.30;1.10;;;11.00;67.30;;;;;;4940857;29;20036;-91
2021/04/02 12:25:49;;;;;;;3.40;1.40;;;11.10;66.00;;;;;;4940410;29;20042;-91
2021/04/02 12:28:15;;;;;;;4.20;1.85;;;11.20;65.60;;;;;;4939901;29;20370;-89
2021/04/02 12:30:40;;;;;;;2.15;1.60;;;11.40;65.00;;;;;;4941445;29;20031;-89
2021/04/02 12:33:06;;;;;;;2.47;1.60;;;11.60;64.50;;;;;;4924255;29;20391;-89
2021/04/02 12:35:33;;;;;;;1.60;1.23;;;11.90;66.00;;;;;;4939772;29;20039;-88
2021/04/02 12:37:58;;;;;;;3.33;1.65;;;12.20;66.20;;;;;;4942504;29;20068;-89
2021/04/02 12:40:25;;;;;;;1.90;1.42;;;12.40;62.00;;;;;;4938963;29;20347;-89
2021/04/02 12:42:51;;;;;;;1.70;1.33;;;12.50;61.20;;;;;;4938913;29;20035;-90
2021/04/02 12:45:17;;;;;;;1.80;1.60;;;12.70;60.70;;;;;;4939340;29;20432;-90
2021/04/02 12:47:44;;;;;;;2.00;1.40;;;12.80;60.10;;;;;;4942117;29;20036;-90
2021/04/02 12:50:19;;;;;;;1.60;1.50;;;12.80;60.80;;;;;;4943240;29;20373;-91
2021/04/02 12:52:45;;;;;;;1.52;1.35;;;12.90;59.70;;;;;;4944632;29;20039;-90
2021/04/02 12:55:14;;;;;;;1.50;1.40;;;12.90;60.20;;;;;;4941923;29;20339;-89
2021/04/02 12:57:41;;;;;;;3.65;1.45;;;13.00;59.90;;;;;;4942424;29;20035;-90
2021/04/02 13:00:14;;;;;;;2.10;1.90;;;13.10;60.40;;;;;;4925903;29;20047;-88
2021/04/02 13:02:40;;;;;;;3.15;1.75;;;13.20;59.00;;;;;;4929001;29;20039;-89
2021/04/02 13:05:07;;;;;;;1.75;1.65;;;13.30;58.70;;;;;;4942293;29;20043;-91
2021/04/02 13:07:32;;;;;;;2.50;1.85;;;13.40;59.80;;;;;;4943041;29;20114;-93
2021/04/02 13:09:58;;;;;;;1.83;1.70;;;13.40;58.20;;;;;;4944239;29;20047;-93
2021/04/02 13:12:23;;;;;;;3.47;1.58;;;13.20;58.20;;;;;;4955163;29;20036;-93
2021/04/02 13:14:49;;;;;;;1.90;1.48;;;13.10;58.80;;;;;;4943753;29;20039;-92
2021/04/02 13:17:15;;;;;;;2.33;1.98;;;13.00;59.00;;;;;;4943131;29;20039;-92
2021/04/02 13:19:40;;;;;;;2.85;2.13;;;13.10;59.10;;;;;;4941939;29;20103;-90
2021/04/02 13:22:09;;;;;;;2.45;2.22;;;13.10;59.90;;;;;;4943013;29;20425;-91
2021/04/02 13:24:35;;;;;;;3.33;2.00;;;13.30;59.10;;;;;;4944995;29;20039;-91
2021/04/02 13:27:00;;;;;;;2.63;2.30;;;13.30;59.50;;;;;;4944180;29;20126;-92
2021/04/02 13:29:26;;;;;;;2.83;2.40;;;13.40;59.70;;;;;;4944020;29;20043;-93
2021/04/02 13:31:51;;;;;;;6.70;2.97;;;13.40;58.90;;;;;;4943298;29;20122;-93
2021/04/02 13:34:17;;;;;;;3.53;3.05;;;13.30;59.00;;;;;;4943429;29;20039;-94
2021/04/02 13:36:43;;;;;;;4.47;3.08;;;13.10;59.20;;;;;;4943483;29;20047;-94
2021/04/02 13:39:09;;;;;;;4.68;3.55;;;12.90;60.70;;;;;;4943070;29;20039;-90
2021/04/02 13:41:36;;;;;;;4.55;3.50;;;12.80;61.60;;;;;;4942307;29;20054;-92
2021/04/02 13:44:03;;;;;;;4.30;3.67;;;12.90;61.50;;;;;;4942593;29;20039;-94
2021/04/02 13:46:29;;;;;;;3.97;3.58;;;12.90;59.90;;;;;;4927267;29;20039;-90
2021/04/02 13:48:54;;;;;;;4.75;3.85;;;12.90;59.40;;;;;;4927580;29;20039;-94
2021/04/02 13:51:20;;;;;;;6.07;4.22;;;12.90;58.60;;;;;;4926923;29;20139;-91
2021/04/02 13:53:45;;;;;;;5.32;4.18;;;13.10;59.10;;;;;;4942420;29;20106;-91
2021/04/02 13:56:11;;;;;;;6.88;4.57;;;13.10;58.70;;;;;;4926386;29;20386;-90
2021/04/02 13:58:49;;;;;;;5.88;4.50;;;13.10;60.40;;;;;;4930586;29;20054;-94
2021/04/02 14:01:14;;;;;;;5.45;4.50;;;13.20;59.20;;;;;;4943175;29;20036;-94
2021/04/02 14:03:40;;;;;;;7.03;5.20;;;13.20;58.40;;;;;;4942816;29;20367;-94
2021/04/02 14:06:06;;;;;;;7.82;5.55;;;13.10;58.90;;;;;;4942761;29;20743;-93
2021/04/02 14:08:31;;;;;;;7.53;5.70;;;12.90;59.70;;;;;;4946387;29;20035;-94
2021/04/02 14:10:58;;;;;;;7.05;5.50;;;12.80;60.30;;;;;;4950181;29;20086;-93
2021/04/02 14:13:24;;;;;;;7.07;5.70;;;12.60;61.20;;;;;;4942302;29;20043;-92
2021/04/02 14:15:49;;;;;;;5.97;4.88;;;12.60;60.80;;;;;;4942352;29;20102;-91
2021/04/02 14:18:15;;;;;;;4.07;3.40;;;12.70;59.60;;;;;;4945413;29;20046;-92
2021/04/02 14:20:47;;;;;;;4.68;2.72;;;12.70;58.90;;;;;;4942325;29;20035;-94
2021/04/02 14:23:12;;;;;;;2.58;2.38;;;12.90;57.90;;;;;;4942262;29;20035;-91
2021/04/02 14:25:38;;;;;;;2.97;1.98;;;12.90;57.40;;;;;;4941845;29;20118;-91
2021/04/02 14:28:07;;;;;;;4.43;3.00;;;12.90;57.90;;;;;;4947256;29;20031;-92
2021/04/02 14:30:57;;;;;;;2.85;2.20;;;13.00;58.60;;;;;;4960909;29;20047;-93
2021/04/02 14:33:26;;;;;;;2.28;1.92;;;13.10;58.10;;;;;;4961480;29;20052;-94
2021/04/02 14:35:55;;;;;;;1.90;1.70;;;13.10;57.90;;;;;;4961686;29;20416;-94
2021/04/02 14:41:37;;;;;;;2.03;1.48;;;13.00;57.60;;;;;;4950976;29;20078;-94
2021/04/02 14:44:22;;;;;;;2.10;1.67;;;13.10;57.10;;;;;;4943237;29;20055;-92
2021/04/02 14:47:35;;;;;;;;;;;;;;;;;;;;;
2021/04/02 14:50:12;;;;;;;2.35;2.00;;;13.00;58.50;;;;;;4942148;29;20039;-95
2021/04/02 14:52:54;;;;;;;2.75;2.15;;;12.90;58.50;;;;;;4942121;29;20333;-95
2021/04/02 14:55:29;;;;;;;3.75;1.85;;;13.00;59.00;;;;;;4941897;29;20039;-95
2021/04/02 14:58:00;;;;;;;4.38;2.28;;;13.10;58.10;;;;;;4937755;29;20039;-95
2021/04/02 15:01:25;;;;;;;2.30;1.75;;;13.20;58.90;;;;;;4883734;29;20045;-94
2021/04/02 15:04:14;;;;;;;2.78;2.20;;;13.40;58.00;;;;;;4889257;29;20043;-94
2021/04/02 15:07:30;;;;;;;3.20;2.25;;;13.70;56.40;;;;;;4925330;29;20043;-94
2021/04/02 15:13:34;;;;;;;3.25;2.35;;;13.50;57.40;;;;;;4940630;29;20114;-95
2021/04/02 15:16:23;;;;;;;3.97;2.88;;;13.50;57.60;;;;;;4940167;29;20036;-95
2021/04/02 15:23:21;;;;;;;4.03;2.90;;;13.20;58.60;;;;;;4898612;29;20132;-96
2021/04/02 15:33:02;;;;;;;6.57;2.88;;;12.70;61.10;;;;;;4864859;29;20438;-95
2021/04/02 15:36:03;;;;;;;3.72;3.13;;;12.30;61.80;;;;;;4867775;29;20041;-95
2021/04/02 15:38:44;;;;;;;;;;;;;;;;;;;;;
2021/04/02 22:44:28;;;;;;;4.05;2.30;;;6.80;90.40;;;;;;4932225;29;20050;-93
2021/04/02 22:53:45;;;;;;;8.43;2.30;;;6.60;91.20;;;;;;4923214;29;20059;-95
2021/04/02 22:59:37;;;;;;;10.10;3.50;;;6.60;91.70;;;;;;4920515;29;20131;-93
2021/04/02 23:02:05;;;;;;;6.15;2.85;;;6.50;91.90;;;;;;4942949;29;20084;-93
2021/04/02 23:04:31;;;;;;;8.65;3.35;;;6.40;92.20;;;;;;4942009;29;20101;-94
2021/04/02 23:06:59;;;;;;;8.68;3.22;;;6.30;92.20;;;;;;4942485;29;20110;-92
2021/04/02 23:09:24;;;;;;;6.68;3.45;;;6.20;92.80;;;;;;4942277;29;20036;-96
2021/04/02 23:12:02;;;;;;;6.68;2.83;;;6.30;92.60;;;;;;4941161;29;20036;-94
2021/04/02 23:14:27;;;;;;;11.75;3.47;;;6.30;92.70;;;;;;4942074;29;20381;-95
2021/04/02 23:16:58;;;;;;;12.38;3.40;;;6.20;92.90;;;;;;4941677;29;20039;-93
2021/04/02 23:19:23;;;;;;;4.25;2.65;;;6.20;92.90;;;;;;4941420;29;20071;-94
2021/04/02 23:21:51;;;;;;;5.15;3.88;;;6.20;93.20;;;;;;4942143;29;20446;-93
2021/04/02 23:24:17;;;;;;;9.48;3.85;;;6.30;93.00;;;;;;4922613;29;20055;-94
2021/04/02 23:26:48;;;;;;;5.93;2.95;;;6.30;93.00;;;;;;4906452;29;20036;-94
2021/04/02 23:29:14;;;;;;;8.30;3.50;;;6.40;93.10;;;;;;4922196;29;20032;-94
2021/04/02 23:31:42;;;;;;;7.95;3.70;;;6.40;93.10;;;;;;4941423;29;20050;-93
2021/04/02 23:34:08;;;;;;;9.50;3.25;;;6.40;93.20;;;;;;4941315;29;20139;-93
2021/04/02 23:36:33;;;;;;;11.43;3.20;;;6.40;93.10;;;;;;4941741;29;20305;-93
2021/04/02 23:38:59;;;;;;;15.00;3.42;;;6.40;93.40;;;;;;4941283;29;20039;-92
2021/04/02 23:41:30;;;;;;;13.55;4.20;;;6.40;93.40;;;;;;4941058;29;20043;-94
2021/04/02 23:44:00;;;;;;;10.32;4.78;;;6.40;93.40;;;;;;4925407;29;20048;-93
2021/04/02 23:46:28;;;;;;;18.50;4.38;;;6.40;93.30;;;;;;4941165;29;20091;-93
2021/04/02 23:48:54;;;;;;;10.73;3.78;;;6.40;93.30;;;;;;4925323;29;20048;-93
2021/04/02 23:51:19;;;;;;;14.00;4.65;;;6.40;93.40;;;;;;4943479;29;20426;-92
2021/04/02 23:53:45;;;;;;;8.73;3.22;;;6.40;93.40;;;;;;4927647;29;20118;-92
2021/04/02 23:56:13;;;;;;;11.02;3.20;;;6.40;93.50;;;;;;4940931;29;20050;-93
2021/04/02 23:58:38;;;;;;;11.13;3.72;;;6.40;93.40;;;;;;4940965;29;20043;-92
